WetterOnline ( https://www.wetteronline.de )

Wetter aktuell Elsterheide

Aktuelles Wetter: Hoyerswerda (116m)

6-stündlich | Neueste Meldungen
Ortszeit Temperatur Wetter
Di, 26.10. 8:00 6.5° C bewölkt
Di, 26.10. 2:00 8.1° C bedeckt
Mo, 25.10. 20:00 7.8° C bedeckt
Mo, 25.10. 14:00 12.5° C leicht bewölkt
Mo, 25.10. 8:00 5.5° C wolkenlos
Mo, 25.10. 2:00 0.3° C wolkenlos
So, 24.10. 20:00 6.1° C wolkenlos
So, 24.10. 14:00 12.2° C leicht bewölkt
Ortszeit Temperatur Wetter
Di, 26.10. 8:30 7.1° C bedeckt
Di, 26.10. 8:20 7.1° C bedeckt
Di, 26.10. 8:10 6.9° C bewölkt
Di, 26.10. 8:00 6.5° C bewölkt
Di, 26.10. 7:50 6.5° C bewölkt
Di, 26.10. 7:40 6.4° C wolkig
Di, 26.10. 7:30 6.3° C leicht bewölkt
Di, 26.10. 7:00 6.5° C wolkenlos
Di, 26.10. 6:30 7.1° C wolkenlos
Di, 26.10. 6:00 7.3° C wolkenlos
Di, 26.10. 5:30 7.4° C wolkig
Ortszeit Relative Feuchte Sichtweite
Di, 26.10. 8:00 76% 35 km
Di, 26.10. 2:00 69% 40 km
Mo, 25.10. 20:00 68% 40 km
Mo, 25.10. 14:00 49% 60 km
Mo, 25.10. 8:00 69% 50 km
Mo, 25.10. 2:00 89% 40 km
So, 24.10. 20:00 75% 45 km
So, 24.10. 14:00 49% 55 km
Ortszeit Relative Feuchte Sichtweite
Di, 26.10. 8:30 74% 40 km
Di, 26.10. 8:20 74% -
Di, 26.10. 8:10 75% -
Di, 26.10. 8:00 76% 35 km
Di, 26.10. 7:50 76% -
Di, 26.10. 7:40 76% -
Di, 26.10. 7:30 76% 40 km
Di, 26.10. 7:00 75% 35 km
Di, 26.10. 6:30 74% 35 km
Di, 26.10. 6:00 75% 35 km
Di, 26.10. 5:30 75% 35 km
Ortszeit Niederschlagsmenge Niederschlagsart
Di, 26.10. 8:00 0.0 l/m2 in 12 Std. -
Di, 26.10. 2:00 0.0 l/m2 in 6 Std. -
Mo, 25.10. 20:00 0.0 l/m2 in 12 Std. -
Mo, 25.10. 14:00 0.0 l/m2 in 6 Std. -
Mo, 25.10. 8:00 0.0 l/m2 in 12 Std. -
Mo, 25.10. 2:00 0.0 l/m2 in 6 Std. -
So, 24.10. 20:00 0.0 l/m2 in 12 Std. -
So, 24.10. 14:00 0.0 l/m2 in 6 Std. -
Ortszeit Niederschlagsmenge Niederschlagsart
Di, 26.10. 8:30 0.0 l/m2 in 1 Std. -
Di, 26.10. 8:20 keine Meldung -
Di, 26.10. 8:10 keine Meldung -
Di, 26.10. 8:00 0.0 l/m2 in 1 Std. -
Di, 26.10. 7:50 keine Meldung -
Di, 26.10. 7:40 keine Meldung -
Di, 26.10. 7:30 0.0 l/m2 in 1 Std. -
Di, 26.10. 7:00 0.0 l/m2 in 1 Std. -
Di, 26.10. 6:30 0.0 l/m2 in 1 Std. -
Di, 26.10. 6:00 0.0 l/m2 in 1 Std. -
Di, 26.10. 5:30 0.0 l/m2 in 1 Std. -
Ortszeit Stärke Spitze Richtung
km/h Bft. km/h Grad Sektor
Di, 26.10. 8:00 7 2 18 160° S
Di, 26.10. 2:00 9 2 26 170° S
Mo, 25.10. 20:00 11 2 28 170° S
Mo, 25.10. 14:00 15 3 35 170° S
Mo, 25.10. 8:00 15 3 28 170° S
Mo, 25.10. 2:00 7 2 14 140° SO
So, 24.10. 20:00 7 2 29 110° O
So, 24.10. 14:00 14 3 29 170° S
Ortszeit Stärke Spitze Richtung
km/h Bft. km/h Grad Sektor
Di, 26.10. 8:30 9 2 15 170° S
Di, 26.10. 8:20 9 2 - 170° S
Di, 26.10. 8:10 7 2 - 170° S
Di, 26.10. 8:00 7 2 18 160° S
Di, 26.10. 7:50 7 2 - 160° S
Di, 26.10. 7:40 7 2 - 170° S
Di, 26.10. 7:30 7 2 15 170° S
Di, 26.10. 7:00 7 2 18 170° S
Di, 26.10. 6:30 9 2 19 170° S
Di, 26.10. 6:00 7 2 18 160° S
Di, 26.10. 5:30 6 1 15 160° S
Ortszeit Untergrenze Bedeckung Gattung
total tief tief mittel hoch
Di, 26.10. 8:00 1170 m 7/8 7/8 - - -
Di, 26.10. 2:00 4800 m 8/8 8/8 - - -
Mo, 25.10. 20:00 6300 m 8/8 8/8 - - -
Mo, 25.10. 14:00 8100 m 5/8 0/8 - - -
Mo, 25.10. 8:00 - 0/8 0/8 - - -
Mo, 25.10. 2:00 - 0/8 0/8 - - -
So, 24.10. 20:00 - 0/8 0/8 - - -
So, 24.10. 14:00 8700 m 8/8 0/8 - - -
Ortszeit Bedeckungsgrad in Achtel und Wolkenuntergrenze
Di, 26.10. 8:30 8(1500m)
Di, 26.10. 8:20 8(1500m)
Di, 26.10. 8:10 7(1500m)
Di, 26.10. 8:00 2(1170m) 7(1500m)
Di, 26.10. 7:50 2(1170m) 7(1500m)
Di, 26.10. 7:40 3(1170m) 4(1380m) 5(1500m)
Di, 26.10. 7:30 1(1380m) 3(1410m) 5(1500m)
Di, 26.10. 7:00 keine Wolken
Di, 26.10. 6:30 keine Wolken
Di, 26.10. 6:00 keine Wolken
Di, 26.10. 5:30 5(4500m) 5(8400m) 6(9000m)
Ortszeit Luftdruck NN (hPa) Tendenz (hPa in 3 Std.)
Di, 26.10. 8:00 1020 + 0,3
Di, 26.10. 2:00 1020 - 0,2
Mo, 25.10. 20:00 1021 - 0,1
Mo, 25.10. 14:00 1022 - 1,0
Mo, 25.10. 8:00 1023 - 0,6
Mo, 25.10. 2:00 1025 - 1,0
So, 24.10. 20:00 1027 - 1,3
So, 24.10. 14:00 1030 - 1,7
Ortszeit Luftdruck NN (hPa) Tendenz (hPa in 3 Std.)
Di, 26.10. 8:30 1020 + 0,5
Di, 26.10. 8:20 1020 keine Meldung
Di, 26.10. 8:10 1020 keine Meldung
Di, 26.10. 8:00 1020 + 0,3
Di, 26.10. 7:50 1020 keine Meldung
Di, 26.10. 7:40 1020 keine Meldung
Di, 26.10. 7:30 1020 + 0,2
Di, 26.10. 7:00 1020 + 0,1
Di, 26.10. 6:30 1020 - 0,2
Di, 26.10. 6:00 1020 - 0,2
Di, 26.10. 5:30 1020 - 0,3
Ortszeit Schneehöhe (cm)
Di, 26.10. 8:00 0
Di, 26.10. 2:00 0
Mo, 25.10. 20:00 0
Mo, 25.10. 14:00 0
Mo, 25.10. 8:00 0
Mo, 25.10. 2:00 0
So, 24.10. 20:00 0
So, 24.10. 14:00 0
Ortszeit Schneehöhe (cm)
Di, 26.10. 8:30 0
Di, 26.10. 8:20 0
Di, 26.10. 8:10 0
Di, 26.10. 8:00 0
Di, 26.10. 7:50 0
Di, 26.10. 7:40 0
Di, 26.10. 7:30 0
Di, 26.10. 7:00 0
Di, 26.10. 6:30 0
Di, 26.10. 6:00 0
Di, 26.10. 5:30 0
Link zu dieser Seite / Seite empfehlen

Das Wetter in ...